Time;durP1;ratioP1;P1;durP2;ratioP2;P2;SDS_P1;SDS_P2;PMS_P1;PMS_P2;Temp;Humidity;BMP_temperature;BMP_pressure;BME280_temperature;BME280_humidity;BME280_pressure;Samples;Min_cycle;Max_cycle;Signal;HPM_P1;HPM_P2
2022/04/02 00:01:39;;;;;;;44.30;34.70;;;;;;;;;;4972479;28;20050;-69
2022/04/02 00:04:06;;;;;;;33.83;25.83;;;;;;;;;;4974991;28;20052;-70
2022/04/02 00:06:33;;;;;;;41.03;32.97;;;;;;;;;;4976200;28;20066;-68
2022/04/02 00:08:58;;;;;;;31.92;26.67;;;;;;;;;;4973701;28;20038;-69
2022/04/02 00:11:24;;;;;;;35.00;26.23;;;;;;;;;;4971554;28;20041;-69
2022/04/02 00:13:49;;;;;;;42.00;33.72;;;;;;;;;;4973486;28;20058;-69
2022/04/02 00:16:15;;;;;;;44.15;35.60;;;;;;;;;;4975896;28;20042;-69
2022/04/02 00:18:42;;;;;;;42.45;32.75;;;;;;;;;;4971483;28;20038;-69
2022/04/02 00:21:08;;;;;;;32.83;26.30;;;;;;;;;;4971395;28;20039;-69
2022/04/02 00:23:40;;;;;;;44.78;33.28;;;;;;;;;;4974465;28;20031;-69
2022/04/02 00:26:11;;;;;;;44.58;32.67;;;;;;;;;;4971136;28;20038;-70
2022/04/02 00:28:39;;;;;;;38.92;30.05;;;;;;;;;;4970060;28;20505;-69
2022/04/02 00:31:10;;;;;;;39.88;29.40;;;;;;;;;;4973752;28;20085;-69
2022/04/02 00:33:37;;;;;;;39.58;30.67;;;;;;;;;;4957593;28;20034;-69
2022/04/02 00:36:04;;;;;;;32.30;26.05;;;;;;;;;;4957938;28;20045;-68
2022/04/02 00:38:29;;;;;;;36.17;29.40;;;;;;;;;;4957363;28;20035;-69
2022/04/02 00:40:55;;;;;;;37.90;29.75;;;;;;;;;;4953986;28;20030;-69
2022/04/02 00:43:25;;;;;;;40.45;27.35;;;;;;;;;;4969010;28;20128;-69
2022/04/02 00:45:52;;;;;;;35.33;26.75;;;;;;;;;;4970581;28;20454;-69
2022/04/02 00:48:19;;;;;;;38.05;28.52;;;;;;;;;;4976978;28;20405;-69
2022/04/02 00:50:46;;;;;;;38.10;29.63;;;;;;;;;;4972114;28;20066;-69
2022/04/02 00:53:14;;;;;;;33.05;24.67;;;;;;;;;;4968464;28;20034;-69
2022/04/02 00:55:42;;;;;;;33.20;25.77;;;;;;;;;;4936364;28;20085;-69
2022/04/02 00:58:10;;;;;;;39.53;29.23;;;;;;;;;;4971293;28;20034;-69
2022/04/02 01:00:37;;;;;;;43.42;31.90;;;;;;;;;;4955076;28;20177;-69
2022/04/02 01:03:03;;;;;;;32.45;26.13;;;;;;;;;;4972028;28;20072;-69
2022/04/02 01:05:29;;;;;;;36.70;26.98;;;;;;;;;;4975032;28;20035;-69
2022/04/02 01:07:56;;;;;;;35.55;28.02;;;;;;;;;;4959904;28;20127;-69
2022/04/02 01:10:23;;;;;;;33.63;26.77;;;;;;;;;;4951752;28;20118;-69
2022/04/02 01:12:49;;;;;;;37.97;29.65;;;;;;;;;;4957205;28;20034;-69
2022/04/02 01:15:16;;;;;;;37.10;25.85;;;;;;;;;;4959743;28;20097;-69
2022/04/02 01:17:48;;;;;;;30.95;24.02;;;;;;;;;;4957724;28;20045;-70
2022/04/02 01:20:27;;;;;;;34.90;26.77;;;;;;;;;;4955094;28;20070;-70
2022/04/02 01:22:59;;;;;;;31.48;25.30;;;;;;;;;;4970551;28;20086;-70
2022/04/02 01:25:33;;;;;;;35.70;26.40;;;;;;;;;;4950285;28;20035;-69
2022/04/02 01:28:04;;;;;;;30.88;24.52;;;;;;;;;;4957504;28;20136;-70
2022/04/02 01:30:32;;;;;;;28.42;24.02;;;;;;;;;;4954811;28;20490;-69
2022/04/02 01:32:58;;;;;;;36.38;27.70;;;;;;;;;;4954304;28;20038;-69
2022/04/02 01:35:25;;;;;;;31.40;24.58;;;;;;;;;;4958560;28;20049;-69
2022/04/02 01:38:14;;;;;;;30.70;23.63;;;;;;;;;;4968646;28;20069;-69
2022/04/02 01:40:39;;;;;;;33.53;27.15;;;;;;;;;;4955341;28;20125;-68
2022/04/02 01:43:07;;;;;;;29.80;24.55;;;;;;;;;;4962456;28;20030;-69
2022/04/02 01:45:33;;;;;;;27.27;23.10;;;;;;;;;;4958281;28;20035;-69
2022/04/02 01:48:02;;;;;;;31.83;24.33;;;;;;;;;;4964272;28;20038;-69
2022/04/02 01:50:38;;;;;;;32.90;26.05;;;;;;;;;;4960418;28;20042;-69
2022/04/02 01:53:05;;;;;;;28.75;23.00;;;;;;;;;;4958691;28;20038;-69
2022/04/02 01:55:31;;;;;;;35.50;25.73;;;;;;;;;;4973071;28;20316;-69
2022/04/02 01:58:07;;;;;;;32.22;25.75;;;;;;;;;;4959727;28;20498;-69
2022/04/02 02:00:39;;;;;;;36.65;26.67;;;;;;;;;;4956707;28;20045;-69
2022/04/02 02:03:06;;;;;;;32.28;23.73;;;;;;;;;;4971388;28;20046;-69
2022/04/02 02:05:33;;;;;;;28.05;24.27;;;;;;;;;;4957742;28;20046;-68
2022/04/02 02:07:59;;;;;;;28.83;22.88;;;;;;;;;;4961833;28;20041;-69
2022/04/02 02:10:36;;;;;;;27.75;23.13;;;;;;;;;;4974307;28;20038;-69
2022/04/02 02:13:23;;;;;;;27.20;23.30;;;;;;;;;;4971348;28;20104;-69
2022/04/02 02:15:49;;;;;;;28.55;20.58;;;;;;;;;;4960918;28;20433;-69
2022/04/02 02:18:16;;;;;;;28.48;23.00;;;;;;;;;;4959501;28;20037;-69
2022/04/02 02:20:43;;;;;;;28.00;23.50;;;;;;;;;;4954300;28;20046;-69
2022/04/02 02:23:09;;;;;;;26.70;22.67;;;;;;;;;;4944150;28;20349;-69
2022/04/02 02:25:35;;;;;;;26.25;22.77;;;;;;;;;;4974465;28;20509;-69
2022/04/02 02:28:01;;;;;;;28.35;24.60;;;;;;;;;;4956179;28;20035;-69
2022/04/02 02:30:28;;;;;;;26.67;22.75;;;;;;;;;;4954308;28;20045;-69
2022/04/02 02:35:49;;;;;;;25.67;21.88;;;;;;;;;;4955816;28;20058;-68
2022/04/02 02:38:15;;;;;;;26.42;23.40;;;;;;;;;;4952910;28;20046;-69
2022/04/02 02:40:51;;;;;;;31.25;22.38;;;;;;;;;;4950379;28;20079;-69
2022/04/02 02:43:24;;;;;;;25.27;21.55;;;;;;;;;;4958214;28;20039;-69
2022/04/02 02:45:52;;;;;;;22.35;19.52;;;;;;;;;;4950787;28;20062;-70
2022/04/02 02:48:18;;;;;;;26.35;22.98;;;;;;;;;;4957258;28;20047;-69
2022/04/02 02:50:49;;;;;;;22.40;19.98;;;;;;;;;;4950837;28;20443;-69
2022/04/02 02:53:16;;;;;;;23.10;20.67;;;;;;;;;;4970806;28;20035;-70
2022/04/02 02:55:44;;;;;;;24.67;19.15;;;;;;;;;;4953106;28;20073;-69
2022/04/02 02:58:10;;;;;;;21.98;19.73;;;;;;;;;;4953806;28;20046;-70
2022/04/02 03:00:37;;;;;;;22.15;19.85;;;;;;;;;;4959231;28;20126;-68
2022/04/02 03:03:06;;;;;;;20.45;18.52;;;;;;;;;;4962819;28;20034;-69
2022/04/02 03:05:33;;;;;;;21.10;18.90;;;;;;;;;;4952092;28;20053;-70
2022/04/02 03:08:04;;;;;;;22.63;19.48;;;;;;;;;;4951636;28;20042;-69
2022/04/02 03:10:45;;;;;;;23.10;20.33;;;;;;;;;;4952174;28;20046;-69
2022/04/02 03:13:14;;;;;;;27.38;22.23;;;;;;;;;;4954153;28;20039;-68
2022/04/02 03:15:40;;;;;;;23.17;20.45;;;;;;;;;;4950292;28;20030;-68
2022/04/02 03:18:09;;;;;;;22.00;19.50;;;;;;;;;;4952312;28;20049;-70
2022/04/02 03:20:41;;;;;;;23.05;20.55;;;;;;;;;;4952715;28;20031;-69
2022/04/02 03:23:09;;;;;;;26.83;21.80;;;;;;;;;;4954515;28;20031;-69
2022/04/02 03:25:34;;;;;;;27.40;22.02;;;;;;;;;;4948942;28;20038;-69
2022/04/02 03:28:00;;;;;;;24.70;21.33;;;;;;;;;;4952423;28;20041;-70
2022/04/02 03:30:26;;;;;;;25.38;22.20;;;;;;;;;;4966755;28;20034;-69
2022/04/02 03:32:56;;;;;;;;;;;;;;;;;;4964819;28;20393;-69
2022/04/02 03:35:21;;;;;;;32.03;23.40;;;;;;;;;;4965930;28;20309;-69
2022/04/02 03:37:52;;;;;;;20.92;18.60;;;;;;;;;;4948046;28;20066;-70
2022/04/02 03:40:21;;;;;;;34.45;21.23;;;;;;;;;;4951338;28;20066;-69
2022/04/02 03:42:48;;;;;;;;;;;;;;;;;;4951968;28;20043;-69
2022/04/02 03:45:18;;;;;;;20.58;18.50;;;;;;;;;;4940713;28;19945;-70
2022/04/02 03:47:48;;;;;;;25.42;22.30;;;;;;;;;;4960995;28;20565;-70
2022/04/02 03:50:15;;;;;;;25.45;19.40;;;;;;;;;;4953935;28;20043;-69
2022/04/02 03:52:46;;;;;;;37.97;20.33;;;;;;;;;;4936290;28;20057;-69
2022/04/02 03:55:17;;;;;;;30.30;23.65;;;;;;;;;;4952661;28;20517;-69
2022/04/02 03:57:47;;;;;;;25.75;21.38;;;;;;;;;;4954442;28;20046;-69
2022/04/02 04:00:14;;;;;;;27.65;22.67;;;;;;;;;;4950944;28;20046;-69
2022/04/02 04:02:44;;;;;;;23.70;20.73;;;;;;;;;;4952907;28;20046;-69
2022/04/02 04:05:16;;;;;;;28.30;21.35;;;;;;;;;;4947527;28;20042;-69
2022/04/02 04:07:44;;;;;;;23.92;20.48;;;;;;;;;;4956900;28;20042;-69
2022/04/02 04:10:10;;;;;;;21.48;19.25;;;;;;;;;;4967564;28;20143;-68
2022/04/02 04:12:36;;;;;;;24.35;19.80;;;;;;;;;;4947928;28;20069;-69
2022/04/02 04:15:05;;;;;;;22.88;20.27;;;;;;;;;;4950460;28;20038;-68
2022/04/02 04:17:32;;;;;;;24.40;20.67;;;;;;;;;;4951500;28;20073;-69
2022/04/02 04:19:58;;;;;;;27.17;21.50;;;;;;;;;;4954935;28;20054;-70
2022/04/02 04:22:23;;;;;;;29.00;22.13;;;;;;;;;;4953082;28;20071;-69
2022/04/02 04:24:49;;;;;;;20.90;18.70;;;;;;;;;;4950774;28;20026;-69
2022/04/02 04:27:15;;;;;;;23.83;19.50;;;;;;;;;;4963690;28;20290;-69
2022/04/02 04:29:44;;;;;;;27.88;21.08;;;;;;;;;;4948756;28;20038;-68
2022/04/02 04:32:10;;;;;;;22.38;19.98;;;;;;;;;;4933743;28;20521;-68
2022/04/02 04:34:35;;;;;;;21.33;19.10;;;;;;;;;;4965741;28;20038;-69
2022/04/02 04:37:01;;;;;;;22.10;19.45;;;;;;;;;;4952421;28;20042;-70
2022/04/02 04:39:28;;;;;;;22.20;17.88;;;;;;;;;;4947399;28;20478;-69
2022/04/02 04:41:56;;;;;;;21.00;17.88;;;;;;;;;;4951630;28;20506;-69
2022/04/02 04:44:27;;;;;;;25.88;18.05;;;;;;;;;;4966223;28;20069;-68
2022/04/02 04:46:54;;;;;;;24.13;18.58;;;;;;;;;;4949149;28;20047;-69
2022/04/02 04:49:20;;;;;;;22.55;17.35;;;;;;;;;;4951720;28;20042;-68
2022/04/02 04:51:54;;;;;;;27.83;18.92;;;;;;;;;;4950183;28;20046;-69
2022/04/02 04:54:20;;;;;;;25.08;18.90;;;;;;;;;;4950503;28;20052;-69
2022/04/02 04:56:46;;;;;;;19.92;17.75;;;;;;;;;;4964149;28;20474;-69
2022/04/02 04:59:16;;;;;;;24.75;20.08;;;;;;;;;;4953569;28;20168;-71
2022/04/02 05:01:43;;;;;;;25.23;21.50;;;;;;;;;;4950423;28;20042;-70
2022/04/02 05:04:08;;;;;;;27.02;19.58;;;;;;;;;;4951083;28;20632;-70
2022/04/02 05:06:40;;;;;;;23.13;19.15;;;;;;;;;;4948964;28;20066;-70
2022/04/02 05:09:07;;;;;;;23.08;19.02;;;;;;;;;;4950037;28;20117;-70
2022/04/02 05:11:38;;;;;;;24.50;20.50;;;;;;;;;;4945784;28;20567;-69
2022/04/02 05:14:07;;;;;;;25.90;20.40;;;;;;;;;;4951299;28;20968;-70
2022/04/02 05:16:33;;;;;;;20.45;17.95;;;;;;;;;;4955052;28;20039;-70
2022/04/02 05:19:02;;;;;;;25.80;19.48;;;;;;;;;;4952057;28;20489;-69
2022/04/02 05:21:29;;;;;;;21.35;18.02;;;;;;;;;;4953906;28;21126;-69
2022/04/02 05:23:55;;;;;;;18.88;16.88;;;;;;;;;;4971592;28;20417;-70
2022/04/02 05:26:21;;;;;;;23.73;18.85;;;;;;;;;;4949328;28;20125;-70
2022/04/02 05:28:49;;;;;;;21.25;18.95;;;;;;;;;;4971527;28;20117;-70
2022/04/02 05:31:15;;;;;;;28.45;21.95;;;;;;;;;;4949636;28;20121;-69
2022/04/02 05:33:41;;;;;;;21.20;18.90;;;;;;;;;;4957391;28;20110;-69
2022/04/02 05:36:06;;;;;;;24.20;19.75;;;;;;;;;;4943170;28;20053;-69
2022/04/02 05:38:32;;;;;;;24.63;20.58;;;;;;;;;;4942011;28;20042;-69
2022/04/02 05:40:58;;;;;;;22.15;19.80;;;;;;;;;;4957669;28;20096;-69
2022/04/02 05:43:23;;;;;;;25.80;19.60;;;;;;;;;;4958803;28;20027;-70
2022/04/02 05:45:49;;;;;;;19.73;17.50;;;;;;;;;;4960639;28;20050;-70
2022/04/02 05:48:17;;;;;;;24.45;19.40;;;;;;;;;;4967499;28;20046;-69
2022/04/02 05:50:43;;;;;;;29.58;20.50;;;;;;;;;;4964218;28;20031;-69
2022/04/02 05:53:08;;;;;;;25.80;22.50;;;;;;;;;;4964061;28;20522;-69
2022/04/02 05:55:35;;;;;;;24.65;20.55;;;;;;;;;;4966674;28;20101;-69
2022/04/02 05:58:01;;;;;;;24.92;20.85;;;;;;;;;;4964260;28;20046;-69
2022/04/02 06:00:27;;;;;;;31.02;26.33;;;;;;;;;;4966220;28;20031;-70
2022/04/02 06:02:53;;;;;;;26.60;22.10;;;;;;;;;;4963976;28;20035;-70
2022/04/02 06:05:18;;;;;;;37.22;25.25;;;;;;;;;;4966954;28;20034;-71
2022/04/02 06:07:44;;;;;;;28.02;23.50;;;;;;;;;;4967756;28;20038;-70
2022/04/02 06:10:11;;;;;;;30.55;25.75;;;;;;;;;;4966306;28;20058;-69
2022/04/02 06:12:37;;;;;;;27.63;23.85;;;;;;;;;;4964493;28;20031;-70
2022/04/02 06:15:04;;;;;;;28.92;23.10;;;;;;;;;;4967088;28;20101;-70
2022/04/02 06:17:29;;;;;;;30.23;25.10;;;;;;;;;;4966895;28;20035;-69
2022/04/02 06:19:55;;;;;;;30.48;25.63;;;;;;;;;;4966342;28;20062;-70
2022/04/02 06:22:21;;;;;;;26.42;20.00;;;;;;;;;;4962348;28;20031;-70
2022/04/02 06:24:47;;;;;;;22.27;19.40;;;;;;;;;;4965772;28;20439;-70
2022/04/02 06:27:13;;;;;;;24.75;21.42;;;;;;;;;;4967283;28;20608;-70
2022/04/02 06:29:38;;;;;;;23.85;21.25;;;;;;;;;;4968009;28;20047;-70
2022/04/02 06:32:04;;;;;;;23.70;19.85;;;;;;;;;;4969349;28;20043;-69
2022/04/02 06:34:30;;;;;;;23.27;20.55;;;;;;;;;;4960392;28;20046;-70
2022/04/02 06:36:56;;;;;;;24.38;21.83;;;;;;;;;;4947989;28;20042;-70
2022/04/02 06:39:22;;;;;;;19.48;17.45;;;;;;;;;;4940546;28;20035;-70
2022/04/02 06:41:47;;;;;;;20.65;17.95;;;;;;;;;;4972083;28;20113;-70
2022/04/02 06:44:13;;;;;;;19.25;17.33;;;;;;;;;;4965107;28;20039;-67
2022/04/02 06:46:39;;;;;;;23.33;19.83;;;;;;;;;;4937952;28;20466;-68
2022/04/02 06:49:06;;;;;;;24.45;21.95;;;;;;;;;;4969008;28;20050;-68
2022/04/02 06:51:34;;;;;;;21.45;19.23;;;;;;;;;;4979206;28;20340;-69
2022/04/02 06:54:00;;;;;;;22.63;19.33;;;;;;;;;;4970897;28;20119;-70
2022/04/02 06:56:26;;;;;;;22.55;20.20;;;;;;;;;;4968555;28;20049;-70
2022/04/02 06:58:52;;;;;;;20.25;18.20;;;;;;;;;;4958181;28;20042;-68
2022/04/02 07:01:18;;;;;;;19.48;17.20;;;;;;;;;;4953618;28;20498;-70
2022/04/02 07:03:43;;;;;;;20.55;18.00;;;;;;;;;;4972085;28;20118;-70
2022/04/02 07:06:09;;;;;;;21.00;19.00;;;;;;;;;;4969920;28;20221;-70
2022/04/02 07:08:36;;;;;;;18.33;16.55;;;;;;;;;;4946426;28;20303;-69
2022/04/02 07:11:03;;;;;;;18.73;16.88;;;;;;;;;;4969878;28;20134;-69
2022/04/02 07:13:29;;;;;;;18.60;16.80;;;;;;;;;;4969150;28;20043;-69
2022/04/02 07:15:55;;;;;;;19.15;17.20;;;;;;;;;;4970530;28;20413;-69
2022/04/02 07:18:24;;;;;;;18.05;16.45;;;;;;;;;;4971528;28;20486;-70
2022/04/02 07:20:54;;;;;;;18.87;17.17;;;;;;;;;;4968109;28;20045;-69
2022/04/02 07:23:21;;;;;;;17.73;15.90;;;;;;;;;;4953282;28;20037;-68
2022/04/02 07:25:50;;;;;;;18.45;16.75;;;;;;;;;;4953512;28;20094;-70
2022/04/02 07:28:16;;;;;;;17.25;15.75;;;;;;;;;;4968237;28;20030;-70
2022/04/02 07:30:41;;;;;;;17.05;15.55;;;;;;;;;;4950881;28;20598;-70
2022/04/02 07:33:12;;;;;;;18.70;16.90;;;;;;;;;;4959216;28;20041;-70
2022/04/02 07:35:44;;;;;;;17.13;15.63;;;;;;;;;;4969460;28;20114;-71
2022/04/02 07:38:16;;;;;;;17.85;16.25;;;;;;;;;;4967894;28;20039;-71
2022/04/02 07:41:06;;;;;;;18.25;16.42;;;;;;;;;;4949539;28;20384;-70
2022/04/02 07:43:49;;;;;;;17.85;15.73;;;;;;;;;;4961467;28;20039;-71
2022/04/02 07:46:19;;;;;;;16.58;14.90;;;;;;;;;;4971873;28;20134;-70
2022/04/02 07:48:48;;;;;;;17.30;15.70;;;;;;;;;;4969490;28;20046;-71
2022/04/02 07:51:15;;;;;;;17.15;15.65;;;;;;;;;;4968628;28;20041;-71
2022/04/02 07:53:47;;;;;;;17.98;16.27;;;;;;;;;;4968346;28;20440;-72
2022/04/02 07:56:34;;;;;;;18.70;16.90;;;;;;;;;;4966833;28;20255;-71
2022/04/02 07:59:07;;;;;;;16.95;15.35;;;;;;;;;;4953842;28;20039;-70
2022/04/02 08:01:32;;;;;;;16.13;14.63;;;;;;;;;;4964094;28;20042;-72
2022/04/02 08:04:12;;;;;;;16.27;14.68;;;;;;;;;;4953053;28;20038;-72
2022/04/02 08:06:39;;;;;;;16.15;14.65;;;;;;;;;;4968063;28;20130;-73
2022/04/02 08:09:07;;;;;;;17.45;15.85;;;;;;;;;;4968919;28;20565;-74
2022/04/02 08:11:39;;;;;;;18.85;15.15;;;;;;;;;;4966027;28;20516;-73
2022/04/02 08:14:07;;;;;;;17.40;15.68;;;;;;;;;;4967167;28;20697;-73
2022/04/02 08:16:34;;;;;;;19.52;17.52;;;;;;;;;;4968201;28;20030;-73
2022/04/02 08:19:02;;;;;;;16.75;15.15;;;;;;;;;;4970777;28;20057;-73
2022/04/02 08:21:30;;;;;;;16.80;15.20;;;;;;;;;;4970741;28;20037;-73
2022/04/02 08:23:55;;;;;;;18.40;15.55;;;;;;;;;;4969831;28;20038;-73
2022/04/02 08:26:29;;;;;;;22.40;16.95;;;;;;;;;;4950953;28;20502;-72
2022/04/02 08:29:32;;;;;;;16.52;15.05;;;;;;;;;;4961553;28;20428;-71
2022/04/02 08:32:28;;;;;;;14.98;13.68;;;;;;;;;;4960214;28;20058;-71
2022/04/02 08:35:07;;;;;;;17.30;15.55;;;;;;;;;;4961643;28;20033;-71
2022/04/02 08:38:03;;;;;;;16.35;14.88;;;;;;;;;;4966828;28;20069;-69
2022/04/02 08:41:06;;;;;;;16.23;14.73;;;;;;;;;;4961076;28;20038;-69
2022/04/02 08:44:09;;;;;;;17.13;14.93;;;;;;;;;;4963656;28;20047;-70
2022/04/02 08:46:36;;;;;;;17.45;15.65;;;;;;;;;;4968205;28;20118;-69
2022/04/02 08:49:23;;;;;;;16.80;15.13;;;;;;;;;;4967158;28;20579;-69
2022/04/02 08:52:23;;;;;;;19.42;16.15;;;;;;;;;;4967339;28;20174;-70
2022/04/02 08:55:08;;;;;;;16.20;14.68;;;;;;;;;;4966037;28;20066;-68
2022/04/02 08:57:49;;;;;;;17.10;15.25;;;;;;;;;;4967406;28;20038;-68
2022/04/02 09:00:16;;;;;;;16.42;14.88;;;;;;;;;;4961193;28;20493;-69
2022/04/02 09:03:01;;;;;;;15.02;13.52;;;;;;;;;;4967561;28;20034;-69
2022/04/02 09:05:56;;;;;;;22.33;14.50;;;;;;;;;;4967180;28;20558;-69
2022/04/02 09:09:08;;;;;;;16.15;14.43;;;;;;;;;;4969030;28;20050;-68
2022/04/02 09:11:59;;;;;;;15.60;13.88;;;;;;;;;;4890011;29;20068;-68
2022/04/02 09:14:31;;;;;;;15.20;13.90;;;;;;;;;;4913323;29;20142;-69
2022/04/02 09:16:59;;;;;;;15.32;14.13;;;;;;;;;;4907532;29;20087;-69
2022/04/02 09:19:40;;;;;;;15.73;14.13;;;;;;;;;;4892045;29;20562;-69
2022/04/02 09:22:30;;;;;;;16.70;15.30;;;;;;;;;;4878284;29;20059;-68
2022/04/02 09:25:02;;;;;;;16.70;15.18;;;;;;;;;;4913260;29;20044;-70
2022/04/02 09:28:04;;;;;;;17.13;15.73;;;;;;;;;;4908316;29;20056;-67
2022/04/02 09:30:42;;;;;;;17.58;15.88;;;;;;;;;;4908143;29;20196;-68
2022/04/02 09:33:19;;;;;;;18.08;16.30;;;;;;;;;;4908513;29;20040;-67
2022/04/02 09:36:04;;;;;;;19.15;16.05;;;;;;;;;;4906464;29;20055;-68
2022/04/02 09:38:51;;;;;;;18.05;16.35;;;;;;;;;;4906265;29;20052;-68
2022/04/02 09:41:26;;;;;;;17.13;15.38;;;;;;;;;;4899808;29;20040;-68
2022/04/02 09:43:57;;;;;;;17.50;15.55;;;;;;;;;;4906403;29;20043;-69
2022/04/02 09:46:47;;;;;;;17.80;16.08;;;;;;;;;;4917489;29;20051;-68
2022/04/02 09:49:19;;;;;;;19.55;17.48;;;;;;;;;;4962853;28;20105;-71
2022/04/02 09:51:56;;;;;;;16.25;14.65;;;;;;;;;;4967915;28;20572;-70
2022/04/02 09:54:38;;;;;;;17.08;15.45;;;;;;;;;;4966200;28;20065;-70
2022/04/02 09:57:46;;;;;;;19.15;17.23;;;;;;;;;;4966980;28;20663;-70
2022/04/02 10:00:31;;;;;;;18.15;16.35;;;;;;;;;;4964370;28;20043;-68
2022/04/02 10:03:06;;;;;;;21.98;19.70;;;;;;;;;;4970965;28;20114;-68
2022/04/02 10:05:46;;;;;;;22.17;19.42;;;;;;;;;;4965423;28;20594;-69
2022/04/02 10:08:25;;;;;;;19.25;17.25;;;;;;;;;;4970505;28;20149;-68
2022/04/02 10:10:52;;;;;;;24.85;19.98;;;;;;;;;;4971009;28;20069;-68
2022/04/02 10:13:18;;;;;;;19.30;16.98;;;;;;;;;;4971496;28;20370;-67
2022/04/02 10:15:45;;;;;;;18.42;16.48;;;;;;;;;;4971116;28;20516;-70
2022/04/02 10:18:12;;;;;;;19.98;17.98;;;;;;;;;;4969743;28;20050;-71
2022/04/02 10:20:38;;;;;;;22.98;18.13;;;;;;;;;;4969694;28;20791;-68
2022/04/02 10:23:06;;;;;;;20.10;17.77;;;;;;;;;;4970025;28;20463;-68
2022/04/02 10:25:43;;;;;;;18.67;16.05;;;;;;;;;;4969980;28;20077;-69
2022/04/02 10:28:14;;;;;;;21.05;18.92;;;;;;;;;;4969763;28;20519;-69
2022/04/02 10:30:42;;;;;;;18.27;16.38;;;;;;;;;;4969339;28;20514;-69
2022/04/02 10:33:28;;;;;;;20.17;15.80;;;;;;;;;;4970304;28;20121;-69
2022/04/02 10:35:56;;;;;;;21.58;15.10;;;;;;;;;;4969792;28;20077;-69
2022/04/02 10:38:31;;;;;;;17.55;15.77;;;;;;;;;;4968930;28;20047;-69
2022/04/02 10:40:57;;;;;;;16.73;15.15;;;;;;;;;;4969994;28;20096;-68
2022/04/02 10:43:30;;;;;;;17.75;16.08;;;;;;;;;;4967845;28;20305;-68
2022/04/02 10:45:58;;;;;;;17.95;16.15;;;;;;;;;;4970625;28;20043;-71
2022/04/02 10:48:36;;;;;;;17.35;15.70;;;;;;;;;;4970735;28;20109;-70
2022/04/02 10:51:02;;;;;;;18.75;16.85;;;;;;;;;;4968730;28;20178;-70
2022/04/02 10:53:32;;;;;;;16.98;15.38;;;;;;;;;;4969980;28;20144;-70
2022/04/02 10:56:01;;;;;;;21.25;17.10;;;;;;;;;;4970165;28;20050;-69
2022/04/02 10:58:36;;;;;;;19.42;17.45;;;;;;;;;;4957005;28;20148;-69
2022/04/02 11:01:05;;;;;;;18.45;16.48;;;;;;;;;;4969709;28;20027;-69
2022/04/02 11:03:39;;;;;;;19.87;17.97;;;;;;;;;;4970502;28;20031;-70
2022/04/02 11:06:08;;;;;;;17.95;16.08;;;;;;;;;;4970602;28;20292;-71
2022/04/02 11:08:34;;;;;;;;;;;;;;;;;;4969485;28;20121;-69
2022/04/02 11:11:23;;;;;;;18.23;16.33;;;;;;;;;;4970568;28;20009;-69
2022/04/02 11:13:52;;;;;;;19.58;16.20;;;;;;;;;;4965568;28;20378;-71
2022/04/02 11:16:23;;;;;;;20.42;16.10;;;;;;;;;;4969415;28;20217;-70
2022/04/02 11:21:56;;;;;;;19.27;17.38;;;;;;;;;;4970393;28;20066;-70
2022/04/02 11:24:25;;;;;;;18.77;16.98;;;;;;;;;;4969463;28;20114;-70
2022/04/02 11:26:53;;;;;;;;;;;;;;;;;;4969628;28;20030;-69
2022/04/02 11:29:23;;;;;;;17.73;15.93;;;;;;;;;;4964252;28;19914;-70
2022/04/02 11:31:50;;;;;;;23.92;16.58;;;;;;;;;;4964960;28;20165;-69
2022/04/02 11:34:20;;;;;;;19.65;17.10;;;;;;;;;;4968925;28;20148;-71
2022/04/02 11:36:47;;;;;;;23.52;18.13;;;;;;;;;;4968652;28;20204;-71
2022/04/02 11:39:48;;;;;;;18.60;16.77;;;;;;;;;;4950272;28;20194;-72
2022/04/02 11:42:14;;;;;;;19.23;17.00;;;;;;;;;;4941091;28;20046;-71
2022/04/02 11:44:50;;;;;;;20.02;17.52;;;;;;;;;;4962412;28;20127;-73
2022/04/02 11:47:25;;;;;;;19.77;17.58;;;;;;;;;;4968264;28;20129;-75
2022/04/02 11:49:54;;;;;;;18.30;16.50;;;;;;;;;;4949318;28;20047;-73
2022/04/02 11:52:20;;;;;;;19.67;17.60;;;;;;;;;;4951914;28;20047;-74
2022/04/02 11:54:48;;;;;;;19.23;17.38;;;;;;;;;;4967880;28;20043;-75
2022/04/02 11:57:15;;;;;;;19.75;17.88;;;;;;;;;;4963516;28;20050;-75
2022/04/02 11:59:54;;;;;;;21.55;19.42;;;;;;;;;;4967615;28;20750;-75
2022/04/02 12:02:40;;;;;;;23.52;20.33;;;;;;;;;;4946368;28;20043;-75
2022/04/02 12:05:08;;;;;;;24.85;21.33;;;;;;;;;;4966277;28;20034;-75
2022/04/02 12:07:51;;;;;;;35.80;27.25;;;;;;;;;;4958925;28;20046;-75
2022/04/02 12:10:21;;;;;;;20.00;18.00;;;;;;;;;;4967135;28;20058;-74
2022/04/02 12:12:49;;;;;;;41.58;28.02;;;;;;;;;;4967676;28;20554;-75
2022/04/02 12:15:16;;;;;;;21.85;19.63;;;;;;;;;;4966697;28;20057;-74
2022/04/02 12:17:53;;;;;;;28.30;23.27;;;;;;;;;;4967696;28;20034;-74
2022/04/02 12:20:27;;;;;;;19.13;17.20;;;;;;;;;;4971466;28;20102;-74
2022/04/02 12:23:12;;;;;;;19.65;17.70;;;;;;;;;;4968703;28;20037;-75
2022/04/02 12:25:46;;;;;;;42.33;31.40;;;;;;;;;;4964404;28;20035;-75
2022/04/02 12:28:18;;;;;;;22.48;20.13;;;;;;;;;;4968687;28;20529;-76
2022/04/02 12:30:46;;;;;;;42.00;28.23;;;;;;;;;;4950512;28;20053;-76
2022/04/02 12:33:15;;;;;;;27.30;22.55;;;;;;;;;;4967736;28;20127;-77
2022/04/02 12:35:45;;;;;;;23.33;19.77;;;;;;;;;;4968077;28;20076;-78
2022/04/02 12:38:26;;;;;;;27.67;23.10;;;;;;;;;;4946171;28;20060;-78
2022/04/02 12:40:56;;;;;;;23.25;20.52;;;;;;;;;;4947560;28;20047;-77
2022/04/02 12:43:24;;;;;;;;;;;;;;;;;;4966744;28;20137;-78
2022/04/02 12:45:49;;;;;;;22.10;19.90;;;;;;;;;;4968284;28;19914;-76
2022/04/02 12:48:17;;;;;;;36.72;27.27;;;;;;;;;;4968767;28;20534;-77
2022/04/02 12:50:59;;;;;;;21.48;19.33;;;;;;;;;;4967685;28;20042;-77
2022/04/02 12:53:33;;;;;;;23.85;21.48;;;;;;;;;;4967839;28;20050;-77
2022/04/02 12:56:00;;;;;;;21.02;18.88;;;;;;;;;;4967714;28;20038;-77
2022/04/02 12:58:38;;;;;;;47.42;27.60;;;;;;;;;;4963642;28;20062;-76
2022/04/02 13:01:25;;;;;;;23.55;20.02;;;;;;;;;;4967616;28;20046;-77
2022/04/02 13:03:50;;;;;;;22.55;20.30;;;;;;;;;;4944046;28;20670;-78
2022/04/02 13:06:22;;;;;;;22.73;20.33;;;;;;;;;;4967494;28;20553;-79
2022/04/02 13:09:04;;;;;;;29.77;22.05;;;;;;;;;;4967987;28;21323;-78
2022/04/02 13:11:45;;;;;;;25.02;21.85;;;;;;;;;;4948847;28;20121;-78
2022/04/02 13:14:16;;;;;;;24.00;21.23;;;;;;;;;;4954470;28;20648;-78
2022/04/02 13:16:43;;;;;;;33.00;22.17;;;;;;;;;;4946616;28;20895;-78
2022/04/02 13:22:15;;;;;;;25.95;21.27;;;;;;;;;;4972467;28;20074;-78
2022/04/02 13:25:00;;;;;;;31.30;23.00;;;;;;;;;;4971182;28;20038;-77
2022/04/02 13:27:32;;;;;;;23.88;21.52;;;;;;;;;;4951272;28;20042;-77
2022/04/02 13:30:02;;;;;;;20.73;18.52;;;;;;;;;;4969792;28;20038;-77
2022/04/02 13:32:49;;;;;;;28.33;21.35;;;;;;;;;;4951818;28;20383;-79
2022/04/02 13:35:34;;;;;;;23.95;20.17;;;;;;;;;;4974402;28;20521;-77
2022/04/02 13:38:38;;;;;;;20.83;18.73;;;;;;;;;;4972665;28;20703;-77
2022/04/02 13:41:04;;;;;;;23.70;19.73;;;;;;;;;;4971850;28;20055;-76
2022/04/02 13:43:35;;;;;;;26.25;21.25;;;;;;;;;;4944049;28;20050;-76
2022/04/02 13:46:13;;;;;;;22.33;20.05;;;;;;;;;;4941055;28;20031;-73
2022/04/02 13:49:06;;;;;;;24.30;19.75;;;;;;;;;;4957548;28;20046;-74
2022/04/02 13:52:06;;;;;;;25.98;21.92;;;;;;;;;;4956209;28;20081;-74
2022/04/02 13:54:37;;;;;;;23.00;20.10;;;;;;;;;;4928615;29;20070;-73
2022/04/02 13:57:10;;;;;;;23.88;20.55;;;;;;;;;;4929458;29;20047;-74
2022/04/02 13:59:52;;;;;;;51.80;35.30;;;;;;;;;;4929114;29;20227;-74
2022/04/02 14:02:25;;;;;;;22.25;19.90;;;;;;;;;;4959750;23;20502;-71
2022/04/02 14:04:59;;;;;;;24.00;21.50;;;;;;;;;;4984806;28;20071;-71
2022/04/02 14:07:28;;;;;;;24.58;21.67;;;;;;;;;;4960819;28;20104;-71
2022/04/02 14:10:08;;;;;;;28.52;24.95;;;;;;;;;;4961698;28;20045;-71
2022/04/02 14:12:38;;;;;;;22.55;20.25;;;;;;;;;;4988173;28;20117;-71
2022/04/02 14:15:09;;;;;;;22.88;18.75;;;;;;;;;;4974837;28;20034;-71
2022/04/02 14:17:44;;;;;;;30.80;26.90;;;;;;;;;;4978559;28;20026;-71
2022/04/02 14:20:16;;;;;;;26.20;23.33;;;;;;;;;;4977645;28;20042;-70
2022/04/02 14:22:56;;;;;;;27.75;22.50;;;;;;;;;;4977459;28;20039;-71
2022/04/02 14:25:34;;;;;;;23.40;20.40;;;;;;;;;;4986691;28;20052;-70
2022/04/02 14:28:38;;;;;;;24.80;22.10;;;;;;;;;;4976307;28;20101;-70
2022/04/02 14:31:22;;;;;;;22.63;20.33;;;;;;;;;;4984703;28;20125;-70
2022/04/02 14:34:25;;;;;;;26.52;21.42;;;;;;;;;;4971727;28;20042;-70
2022/04/02 14:37:23;;;;;;;21.17;19.08;;;;;;;;;;4986418;28;20118;-71
2022/04/02 14:40:33;;;;;;;22.50;20.20;;;;;;;;;;4987262;28;20043;-71
2022/04/02 14:42:59;;;;;;;27.98;24.08;;;;;;;;;;4959761;28;20524;-72
2022/04/02 14:45:24;;;;;;;24.65;21.83;;;;;;;;;;4988469;28;20050;-71
2022/04/02 14:47:59;;;;;;;25.40;22.48;;;;;;;;;;4962212;28;20518;-71
2022/04/02 14:51:06;;;;;;;23.70;21.20;;;;;;;;;;4960475;28;20051;-72
2022/04/02 14:53:55;;;;;;;23.42;21.02;;;;;;;;;;4978305;28;20051;-72
2022/04/02 14:56:39;;;;;;;24.27;21.25;;;;;;;;;;4991536;28;20034;-71